sensor_id;sensor_type;location;lat;lon;timestamp;P1;durP1;ratioP1;P2;durP2;ratioP2
64915;SDS011;51427;-27.442;153.014;2022-11-15T00:01:14;1.98;;;0.60;;
64915;SDS011;51427;-27.442;153.014;2022-11-15T00:03:43;1.25;;;0.30;;
64915;SDS011;51427;-27.442;153.014;2022-11-15T00:06:11;1.13;;;0.30;;
64915;SDS011;51427;-27.442;153.014;2022-11-15T00:08:39;1.25;;;0.30;;
64915;SDS011;51427;-27.442;153.014;2022-11-15T00:11:08;2.47;;;0.52;;
64915;SDS011;51427;-27.442;153.014;2022-11-15T00:13:38;4.85;;;0.47;;
64915;SDS011;51427;-27.442;153.014;2022-11-15T00:16:06;0.60;;;0.22;;
64915;SDS011;51427;-27.442;153.014;2022-11-15T00:18:34;2.53;;;0.47;;
64915;SDS011;51427;-27.442;153.014;2022-11-15T00:21:06;1.95;;;0.40;;
64915;SDS011;51427;-27.442;153.014;2022-11-15T00:23:36;1.48;;;0.57;;
64915;SDS011;51427;-27.442;153.014;2022-11-15T00:26:04;3.25;;;0.68;;
64915;SDS011;51427;-27.442;153.014;2022-11-15T00:28:31;0.30;;;0.30;;
64915;SDS011;51427;-27.442;153.014;2022-11-15T00:31:06;1.67;;;0.50;;
64915;SDS011;51427;-27.442;153.014;2022-11-15T00:33:37;0.45;;;0.20;;
64915;SDS011;51427;-27.442;153.014;2022-11-15T00:36:06;1.75;;;0.40;;
64915;SDS011;51427;-27.442;153.014;2022-11-15T00:38:37;1.20;;;0.60;;
64915;SDS011;51427;-27.442;153.014;2022-11-15T00:41:06;2.33;;;0.60;;
64915;SDS011;51427;-27.442;153.014;2022-11-15T00:43:35;3.00;;;0.43;;
64915;SDS011;51427;-27.442;153.014;2022-11-15T00:46:03;1.40;;;0.63;;
64915;SDS011;51427;-27.442;153.014;2022-11-15T00:48:34;2.08;;;0.75;;
64915;SDS011;51427;-27.442;153.014;2022-11-15T00:51:02;1.80;;;0.45;;
64915;SDS011;51427;-27.442;153.014;2022-11-15T00:53:30;0.75;;;0.35;;
64915;SDS011;51427;-27.442;153.014;2022-11-15T00:55:57;1.25;;;0.50;;
64915;SDS011;51427;-27.442;153.014;2022-11-15T00:58:25;1.75;;;0.50;;
64915;SDS011;51427;-27.442;153.014;2022-11-15T01:00:52;2.65;;;0.57;;
64915;SDS011;51427;-27.442;153.014;2022-11-15T01:03:20;3.28;;;0.60;;
64915;SDS011;51427;-27.442;153.014;2022-11-15T01:05:48;2.08;;;0.40;;
64915;SDS011;51427;-27.442;153.014;2022-11-15T01:08:16;1.65;;;0.50;;
64915;SDS011;51427;-27.442;153.014;2022-11-15T01:10:44;1.77;;;0.65;;
64915;SDS011;51427;-27.442;153.014;2022-11-15T01:13:11;1.45;;;0.47;;
64915;SDS011;51427;-27.442;153.014;2022-11-15T01:15:40;0.73;;;0.52;;
64915;SDS011;51427;-27.442;153.014;2022-11-15T01:18:08;1.55;;;0.40;;
64915;SDS011;51427;-27.442;153.014;2022-11-15T01:20:40;1.85;;;0.50;;
64915;SDS011;51427;-27.442;153.014;2022-11-15T01:23:08;2.78;;;0.40;;
64915;SDS011;51427;-27.442;153.014;2022-11-15T01:25:35;1.55;;;0.32;;
64915;SDS011;51427;-27.442;153.014;2022-11-15T01:28:03;0.93;;;0.40;;
64915;SDS011;51427;-27.442;153.014;2022-11-15T01:30:31;1.15;;;0.43;;
64915;SDS011;51427;-27.442;153.014;2022-11-15T01:32:59;2.15;;;0.65;;
64915;SDS011;51427;-27.442;153.014;2022-11-15T01:35:26;1.05;;;0.47;;
64915;SDS011;51427;-27.442;153.014;2022-11-15T01:37:54;3.40;;;0.65;;
64915;SDS011;51427;-27.442;153.014;2022-11-15T01:40:22;1.92;;;0.40;;
64915;SDS011;51427;-27.442;153.014;2022-11-15T01:42:49;2.60;;;0.40;;
64915;SDS011;51427;-27.442;153.014;2022-11-15T01:45:17;0.45;;;0.30;;
64915;SDS011;51427;-27.442;153.014;2022-11-15T01:47:46;1.05;;;0.50;;
64915;SDS011;51427;-27.442;153.014;2022-11-15T01:50:19;1.02;;;0.40;;
64915;SDS011;51427;-27.442;153.014;2022-11-15T01:52:53;1.38;;;0.35;;
64915;SDS011;51427;-27.442;153.014;2022-11-15T01:55:25;1.65;;;0.45;;
64915;SDS011;51427;-27.442;153.014;2022-11-15T01:57:55;1.27;;;0.30;;
64915;SDS011;51427;-27.442;153.014;2022-11-15T02:00:28;3.95;;;0.40;;
64915;SDS011;51427;-27.442;153.014;2022-11-15T02:02:56;2.25;;;0.43;;
64915;SDS011;51427;-27.442;153.014;2022-11-15T02:05:23;2.72;;;0.50;;
64915;SDS011;51427;-27.442;153.014;2022-11-15T02:07:52;1.50;;;0.52;;
64915;SDS011;51427;-27.442;153.014;2022-11-15T02:10:20;4.75;;;0.55;;
64915;SDS011;51427;-27.442;153.014;2022-11-15T02:12:50;1.80;;;0.55;;
64915;SDS011;51427;-27.442;153.014;2022-11-15T02:15:19;3.30;;;0.52;;
64915;SDS011;51427;-27.442;153.014;2022-11-15T02:18:08;1.15;;;0.47;;
64915;SDS011;51427;-27.442;153.014;2022-11-15T02:20:39;1.52;;;0.75;;
64915;SDS011;51427;-27.442;153.014;2022-11-15T02:39:13;3.90;;;0.43;;
64915;SDS011;51427;-27.442;153.014;2022-11-15T02:41:55;0.57;;;0.40;;
64915;SDS011;51427;-27.442;153.014;2022-11-15T02:44:39;0.73;;;0.30;;
64915;SDS011;51427;-27.442;153.014;2022-11-15T02:47:12;0.75;;;0.30;;
64915;SDS011;51427;-27.442;153.014;2022-11-15T02:49:52;1.00;;;0.40;;
64915;SDS011;51427;-27.442;153.014;2022-11-15T02:52:23;0.47;;;0.20;;
64915;SDS011;51427;-27.442;153.014;2022-11-15T02:54:59;0.70;;;0.20;;
64915;SDS011;51427;-27.442;153.014;2022-11-15T03:00:38;2.20;;;0.22;;
64915;SDS011;51427;-27.442;153.014;2022-11-15T03:11:16;2.22;;;0.30;;
64915;SDS011;51427;-27.442;153.014;2022-11-15T03:19:23;1.75;;;0.30;;
64915;SDS011;51427;-27.442;153.014;2022-11-15T03:21:55;0.52;;;0.20;;
64915;SDS011;51427;-27.442;153.014;2022-11-15T03:24:27;0.68;;;0.38;;
64915;SDS011;51427;-27.442;153.014;2022-11-15T03:26:57;0.20;;;0.20;;
64915;SDS011;51427;-27.442;153.014;2022-11-15T03:29:28;2.33;;;0.32;;
64915;SDS011;51427;-27.442;153.014;2022-11-15T03:35:01;1.05;;;0.45;;
64915;SDS011;51427;-27.442;153.014;2022-11-15T03:37:37;1.48;;;0.30;;
64915;SDS011;51427;-27.442;153.014;2022-11-15T03:40:07;1.13;;;0.30;;
64915;SDS011;51427;-27.442;153.014;2022-11-15T03:45:14;1.42;;;0.30;;
64915;SDS011;51427;-27.442;153.014;2022-11-15T03:47:58;2.70;;;0.30;;
64915;SDS011;51427;-27.442;153.014;2022-11-15T03:50:26;1.50;;;0.30;;
64915;SDS011;51427;-27.442;153.014;2022-11-15T03:52:55;0.30;;;0.30;;
64915;SDS011;51427;-27.442;153.014;2022-11-15T03:55:23;1.40;;;0.30;;
64915;SDS011;51427;-27.442;153.014;2022-11-15T03:57:53;2.92;;;0.68;;
64915;SDS011;51427;-27.442;153.014;2022-11-15T04:00:23;1.23;;;0.60;;
64915;SDS011;51427;-27.442;153.014;2022-11-15T04:02:51;0.77;;;0.60;;
64915;SDS011;51427;-27.442;153.014;2022-11-15T04:05:19;1.33;;;0.75;;
64915;SDS011;51427;-27.442;153.014;2022-11-15T04:07:46;3.10;;;0.73;;
64915;SDS011;51427;-27.442;153.014;2022-11-15T04:10:14;1.33;;;0.50;;
64915;SDS011;51427;-27.442;153.014;2022-11-15T04:12:43;2.25;;;0.43;;
64915;SDS011;51427;-27.442;153.014;2022-11-15T04:15:19;1.63;;;0.40;;
64915;SDS011;51427;-27.442;153.014;2022-11-15T04:20:20;1.67;;;0.65;;
64915;SDS011;51427;-27.442;153.014;2022-11-15T04:25:59;0.68;;;0.38;;
64915;SDS011;51427;-27.442;153.014;2022-11-15T04:28:29;2.25;;;0.68;;
64915;SDS011;51427;-27.442;153.014;2022-11-15T04:30:56;1.73;;;0.40;;
64915;SDS011;51427;-27.442;153.014;2022-11-15T04:33:24;2.65;;;0.60;;
64915;SDS011;51427;-27.442;153.014;2022-11-15T04:35:52;4.90;;;0.60;;
64915;SDS011;51427;-27.442;153.014;2022-11-15T04:38:40;2.05;;;0.20;;
64915;SDS011;51427;-27.442;153.014;2022-11-15T04:41:07;2.97;;;0.30;;
64915;SDS011;51427;-27.442;153.014;2022-11-15T04:43:35;1.05;;;0.52;;
64915;SDS011;51427;-27.442;153.014;2022-11-15T04:46:02;1.23;;;0.70;;
64915;SDS011;51427;-27.442;153.014;2022-11-15T04:48:30;0.95;;;0.60;;
64915;SDS011;51427;-27.442;153.014;2022-11-15T04:50:58;5.15;;;1.08;;
64915;SDS011;51427;-27.442;153.014;2022-11-15T04:53:25;1.20;;;1.00;;
64915;SDS011;51427;-27.442;153.014;2022-11-15T04:55:53;1.50;;;0.90;;
64915;SDS011;51427;-27.442;153.014;2022-11-15T04:58:20;3.30;;;1.17;;
64915;SDS011;51427;-27.442;153.014;2022-11-15T05:00:48;4.20;;;1.10;;
64915;SDS011;51427;-27.442;153.014;2022-11-15T05:03:15;2.40;;;0.93;;
64915;SDS011;51427;-27.442;153.014;2022-11-15T05:06:01;1.63;;;0.80;;
64915;SDS011;51427;-27.442;153.014;2022-11-15T05:08:29;2.17;;;1.30;;
64915;SDS011;51427;-27.442;153.014;2022-11-15T05:10:56;2.00;;;1.30;;
64915;SDS011;51427;-27.442;153.014;2022-11-15T05:13:24;3.58;;;1.42;;
64915;SDS011;51427;-27.442;153.014;2022-11-15T05:15:51;2.85;;;1.33;;
64915;SDS011;51427;-27.442;153.014;2022-11-15T05:18:20;1.13;;;1.00;;
64915;SDS011;51427;-27.442;153.014;2022-11-15T05:20:47;2.03;;;0.95;;
64915;SDS011;51427;-27.442;153.014;2022-11-15T05:23:15;1.35;;;1.25;;
64915;SDS011;51427;-27.442;153.014;2022-11-15T05:25:43;2.28;;;1.20;;
64915;SDS011;51427;-27.442;153.014;2022-11-15T05:28:10;3.38;;;1.30;;
64915;SDS011;51427;-27.442;153.014;2022-11-15T05:30:38;1.33;;;1.00;;
64915;SDS011;51427;-27.442;153.014;2022-11-15T05:33:06;2.38;;;1.10;;
64915;SDS011;51427;-27.442;153.014;2022-11-15T05:35:40;2.28;;;1.33;;
64915;SDS011;51427;-27.442;153.014;2022-11-15T05:38:12;3.97;;;1.60;;
64915;SDS011;51427;-27.442;153.014;2022-11-15T05:40:40;1.77;;;1.52;;
64915;SDS011;51427;-27.442;153.014;2022-11-15T05:43:07;3.60;;;2.13;;
64915;SDS011;51427;-27.442;153.014;2022-11-15T05:45:36;3.45;;;1.85;;
64915;SDS011;51427;-27.442;153.014;2022-11-15T05:48:04;5.13;;;2.10;;
64915;SDS011;51427;-27.442;153.014;2022-11-15T05:50:36;6.03;;;2.75;;
64915;SDS011;51427;-27.442;153.014;2022-11-15T05:53:09;6.35;;;3.17;;
64915;SDS011;51427;-27.442;153.014;2022-11-15T05:55:39;3.13;;;2.47;;
64915;SDS011;51427;-27.442;153.014;2022-11-15T05:58:07;3.75;;;2.80;;
64915;SDS011;51427;-27.442;153.014;2022-11-15T06:00:36;6.18;;;3.40;;
64915;SDS011;51427;-27.442;153.014;2022-11-15T06:03:04;4.45;;;3.30;;
64915;SDS011;51427;-27.442;153.014;2022-11-15T06:05:31;3.78;;;3.30;;
64915;SDS011;51427;-27.442;153.014;2022-11-15T06:07:59;4.78;;;1.60;;
64915;SDS011;51427;-27.442;153.014;2022-11-15T06:10:27;1.73;;;0.90;;
64915;SDS011;51427;-27.442;153.014;2022-11-15T06:15:26;3.42;;;1.13;;
64915;SDS011;51427;-27.442;153.014;2022-11-15T06:17:57;3.97;;;1.25;;
64915;SDS011;51427;-27.442;153.014;2022-11-15T06:20:26;3.40;;;0.95;;
64915;SDS011;51427;-27.442;153.014;2022-11-15T06:22:58;1.60;;;0.90;;
64915;SDS011;51427;-27.442;153.014;2022-11-15T06:25:27;1.20;;;0.82;;
64915;SDS011;51427;-27.442;153.014;2022-11-15T06:27:58;2.45;;;0.70;;
64915;SDS011;51427;-27.442;153.014;2022-11-15T06:30:26;7.88;;;1.02;;
64915;SDS011;51427;-27.442;153.014;2022-11-15T06:33:00;1.25;;;1.05;;
64915;SDS011;51427;-27.442;153.014;2022-11-15T06:35:29;1.45;;;0.80;;
64915;SDS011;51427;-27.442;153.014;2022-11-15T06:38:06;2.85;;;0.90;;
64915;SDS011;51427;-27.442;153.014;2022-11-15T06:40:36;2.72;;;1.00;;
64915;SDS011;51427;-27.442;153.014;2022-11-15T06:43:09;5.03;;;1.10;;
64915;SDS011;51427;-27.442;153.014;2022-11-15T06:45:37;2.63;;;0.82;;
64915;SDS011;51427;-27.442;153.014;2022-11-15T06:48:04;1.67;;;0.80;;
64915;SDS011;51427;-27.442;153.014;2022-11-15T06:50:32;5.63;;;1.10;;
64915;SDS011;51427;-27.442;153.014;2022-11-15T06:53:00;2.85;;;0.90;;
64915;SDS011;51427;-27.442;153.014;2022-11-15T06:55:29;2.65;;;1.10;;
64915;SDS011;51427;-27.442;153.014;2022-11-15T06:57:57;4.07;;;1.20;;
64915;SDS011;51427;-27.442;153.014;2022-11-15T07:00:25;2.97;;;0.95;;
64915;SDS011;51427;-27.442;153.014;2022-11-15T07:02:52;3.42;;;1.05;;
64915;SDS011;51427;-27.442;153.014;2022-11-15T07:05:20;2.28;;;0.80;;
64915;SDS011;51427;-27.442;153.014;2022-11-15T07:07:51;3.67;;;1.00;;
64915;SDS011;51427;-27.442;153.014;2022-11-15T07:10:20;1.70;;;1.00;;
64915;SDS011;51427;-27.442;153.014;2022-11-15T07:12:50;1.75;;;0.90;;
64915;SDS011;51427;-27.442;153.014;2022-11-15T07:15:20;5.22;;;1.30;;
64915;SDS011;51427;-27.442;153.014;2022-11-15T07:17:49;3.75;;;1.00;;
64915;SDS011;51427;-27.442;153.014;2022-11-15T07:20:17;1.73;;;0.70;;
64915;SDS011;51427;-27.442;153.014;2022-11-15T07:22:45;2.25;;;0.68;;
64915;SDS011;51427;-27.442;153.014;2022-11-15T07:25:12;1.88;;;0.80;;
64915;SDS011;51427;-27.442;153.014;2022-11-15T07:27:40;2.50;;;0.90;;
64915;SDS011;51427;-27.442;153.014;2022-11-15T07:30:08;0.93;;;0.60;;
64915;SDS011;51427;-27.442;153.014;2022-11-15T07:32:36;3.47;;;0.90;;
64915;SDS011;51427;-27.442;153.014;2022-11-15T07:35:03;2.35;;;0.82;;
64915;SDS011;51427;-27.442;153.014;2022-11-15T07:37:31;3.65;;;1.20;;
64915;SDS011;51427;-27.442;153.014;2022-11-15T07:39:59;2.25;;;0.80;;
64915;SDS011;51427;-27.442;153.014;2022-11-15T07:42:26;2.75;;;1.00;;
64915;SDS011;51427;-27.442;153.014;2022-11-15T07:45:12;1.88;;;0.80;;
64915;SDS011;51427;-27.442;153.014;2022-11-15T07:47:40;2.05;;;0.80;;
64915;SDS011;51427;-27.442;153.014;2022-11-15T07:50:11;2.50;;;0.63;;
64915;SDS011;51427;-27.442;153.014;2022-11-15T07:52:39;6.68;;;0.70;;
64915;SDS011;51427;-27.442;153.014;2022-11-15T07:55:06;2.00;;;0.75;;
64915;SDS011;51427;-27.442;153.014;2022-11-15T07:57:35;2.60;;;0.63;;
64915;SDS011;51427;-27.442;153.014;2022-11-15T08:00:03;3.78;;;0.90;;
64915;SDS011;51427;-27.442;153.014;2022-11-15T08:02:32;1.80;;;1.08;;
64915;SDS011;51427;-27.442;153.014;2022-11-15T08:04:59;3.55;;;0.90;;
64915;SDS011;51427;-27.442;153.014;2022-11-15T08:07:30;3.85;;;1.05;;
64915;SDS011;51427;-27.442;153.014;2022-11-15T08:10:04;2.78;;;0.90;;
64915;SDS011;51427;-27.442;153.014;2022-11-15T08:12:33;5.43;;;0.95;;
64915;SDS011;51427;-27.442;153.014;2022-11-15T08:15:01;3.03;;;0.90;;
64915;SDS011;51427;-27.442;153.014;2022-11-15T08:17:29;3.33;;;1.42;;
64915;SDS011;51427;-27.442;153.014;2022-11-15T08:19:58;1.30;;;0.82;;
64915;SDS011;51427;-27.442;153.014;2022-11-15T08:22:26;4.72;;;1.17;;
64915;SDS011;51427;-27.442;153.014;2022-11-15T08:24:54;2.83;;;1.00;;
64915;SDS011;51427;-27.442;153.014;2022-11-15T08:27:21;3.80;;;0.80;;
64915;SDS011;51427;-27.442;153.014;2022-11-15T08:29:49;2.92;;;1.13;;
64915;SDS011;51427;-27.442;153.014;2022-11-15T08:32:17;2.50;;;1.13;;
64915;SDS011;51427;-27.442;153.014;2022-11-15T08:34:44;3.30;;;1.10;;
64915;SDS011;51427;-27.442;153.014;2022-11-15T08:37:12;2.95;;;1.02;;
64915;SDS011;51427;-27.442;153.014;2022-11-15T08:39:39;3.25;;;1.10;;
64915;SDS011;51427;-27.442;153.014;2022-11-15T08:42:07;2.97;;;1.30;;
64915;SDS011;51427;-27.442;153.014;2022-11-15T08:44:35;2.83;;;1.40;;
64915;SDS011;51427;-27.442;153.014;2022-11-15T08:47:02;4.38;;;1.42;;
64915;SDS011;51427;-27.442;153.014;2022-11-15T08:49:30;3.70;;;1.13;;
64915;SDS011;51427;-27.442;153.014;2022-11-15T08:51:57;2.92;;;1.23;;
64915;SDS011;51427;-27.442;153.014;2022-11-15T08:54:25;4.88;;;1.70;;
64915;SDS011;51427;-27.442;153.014;2022-11-15T08:56:53;4.82;;;1.70;;
64915;SDS011;51427;-27.442;153.014;2022-11-15T08:59:20;4.55;;;1.10;;
64915;SDS011;51427;-27.442;153.014;2022-11-15T09:01:48;5.43;;;1.38;;
64915;SDS011;51427;-27.442;153.014;2022-11-15T09:04:16;5.57;;;1.25;;
64915;SDS011;51427;-27.442;153.014;2022-11-15T09:06:44;4.80;;;1.02;;
64915;SDS011;51427;-27.442;153.014;2022-11-15T09:09:11;3.38;;;0.90;;
64915;SDS011;51427;-27.442;153.014;2022-11-15T09:11:39;5.20;;;1.25;;
64915;SDS011;51427;-27.442;153.014;2022-11-15T09:14:07;5.43;;;1.17;;
64915;SDS011;51427;-27.442;153.014;2022-11-15T09:16:36;2.42;;;1.05;;
64915;SDS011;51427;-27.442;153.014;2022-11-15T09:19:04;5.05;;;1.40;;
64915;SDS011;51427;-27.442;153.014;2022-11-15T09:21:32;6.50;;;1.58;;
64915;SDS011;51427;-27.442;153.014;2022-11-15T09:24:00;4.93;;;1.15;;
64915;SDS011;51427;-27.442;153.014;2022-11-15T09:26:29;6.50;;;1.50;;
64915;SDS011;51427;-27.442;153.014;2022-11-15T09:28:57;5.63;;;1.65;;
64915;SDS011;51427;-27.442;153.014;2022-11-15T09:31:27;5.20;;;1.35;;
64915;SDS011;51427;-27.442;153.014;2022-11-15T09:33:57;4.57;;;1.42;;
64915;SDS011;51427;-27.442;153.014;2022-11-15T09:36:25;2.35;;;1.20;;
64915;SDS011;51427;-27.442;153.014;2022-11-15T09:38:52;5.13;;;1.42;;
64915;SDS011;51427;-27.442;153.014;2022-11-15T09:41:26;2.67;;;1.23;;
64915;SDS011;51427;-27.442;153.014;2022-11-15T09:50:31;4.88;;;1.50;;
64915;SDS011;51427;-27.442;153.014;2022-11-15T09:53:03;5.40;;;1.70;;
64915;SDS011;51427;-27.442;153.014;2022-11-15T09:55:55;5.55;;;1.73;;
64915;SDS011;51427;-27.442;153.014;2022-11-15T10:01:27;4.55;;;1.35;;
64915;SDS011;51427;-27.442;153.014;2022-11-15T10:04:02;2.95;;;1.27;;
64915;SDS011;51427;-27.442;153.014;2022-11-15T10:06:30;5.03;;;1.50;;
64915;SDS011;51427;-27.442;153.014;2022-11-15T10:09:01;4.15;;;1.65;;
64915;SDS011;51427;-27.442;153.014;2022-11-15T10:11:38;2.35;;;1.50;;
64915;SDS011;51427;-27.442;153.014;2022-11-15T10:14:15;3.38;;;1.48;;
64915;SDS011;51427;-27.442;153.014;2022-11-15T10:22:41;3.95;;;1.90;;
64915;SDS011;51427;-27.442;153.014;2022-11-15T10:25:26;4.35;;;1.80;;
64915;SDS011;51427;-27.442;153.014;2022-11-15T10:28:40;6.00;;;1.63;;
64915;SDS011;51427;-27.442;153.014;2022-11-15T10:30:53;6.50;;;1.90;;
64915;SDS011;51427;-27.442;153.014;2022-11-15T10:44:18;5.05;;;1.60;;
64915;SDS011;51427;-27.442;153.014;2022-11-15T10:49:25;4.45;;;1.70;;
64915;SDS011;51427;-27.442;153.014;2022-11-15T10:54:55;7.03;;;1.70;;
64915;SDS011;51427;-27.442;153.014;2022-11-15T10:57:39;5.00;;;1.95;;
64915;SDS011;51427;-27.442;153.014;2022-11-15T11:02:57;4.45;;;1.63;;
64915;SDS011;51427;-27.442;153.014;2022-11-15T11:05:32;3.22;;;1.52;;
64915;SDS011;51427;-27.442;153.014;2022-11-15T11:10:54;3.90;;;1.67;;
64915;SDS011;51427;-27.442;153.014;2022-11-15T11:13:27;6.03;;;1.80;;
64915;SDS011;51427;-27.442;153.014;2022-11-15T11:21:59;4.32;;;1.73;;
64915;SDS011;51427;-27.442;153.014;2022-11-15T11:27:12;4.65;;;1.80;;
64915;SDS011;51427;-27.442;153.014;2022-11-15T11:32:26;4.13;;;1.60;;
64915;SDS011;51427;-27.442;153.014;2022-11-15T11:43:05;7.03;;;2.35;;
64915;SDS011;51427;-27.442;153.014;2022-11-15T11:51:15;4.22;;;2.20;;
64915;SDS011;51427;-27.442;153.014;2022-11-15T11:53:54;5.90;;;2.15;;
64915;SDS011;51427;-27.442;153.014;2022-11-15T11:56:31;5.63;;;2.25;;
64915;SDS011;51427;-27.442;153.014;2022-11-15T11:59:02;4.72;;;1.80;;
64915;SDS011;51427;-27.442;153.014;2022-11-15T12:02:00;4.75;;;2.17;;
64915;SDS011;51427;-27.442;153.014;2022-11-15T12:04:42;3.78;;;2.10;;
64915;SDS011;51427;-27.442;153.014;2022-11-15T12:07:23;4.90;;;2.15;;
64915;SDS011;51427;-27.442;153.014;2022-11-15T12:10:36;4.97;;;2.13;;
64915;SDS011;51427;-27.442;153.014;2022-11-15T12:15:27;5.05;;;2.10;;
64915;SDS011;51427;-27.442;153.014;2022-11-15T12:18:17;3.63;;;2.20;;
64915;SDS011;51427;-27.442;153.014;2022-11-15T12:20:51;3.22;;;1.80;;
64915;SDS011;51427;-27.442;153.014;2022-11-15T12:23:23;4.80;;;2.10;;
64915;SDS011;51427;-27.442;153.014;2022-11-15T12:26:40;4.40;;;2.00;;
64915;SDS011;51427;-27.442;153.014;2022-11-15T12:28:58;6.88;;;1.80;;
64915;SDS011;51427;-27.442;153.014;2022-11-15T12:36:47;3.60;;;1.85;;
64915;SDS011;51427;-27.442;153.014;2022-11-15T12:39:16;6.07;;;2.30;;
64915;SDS011;51427;-27.442;153.014;2022-11-15T12:46:59;5.60;;;1.70;;
64915;SDS011;51427;-27.442;153.014;2022-11-15T12:49:48;4.65;;;1.88;;
64915;SDS011;51427;-27.442;153.014;2022-11-15T12:52:16;4.50;;;1.70;;
64915;SDS011;51427;-27.442;153.014;2022-11-15T12:54:54;3.38;;;1.70;;
64915;SDS011;51427;-27.442;153.014;2022-11-15T12:59:55;4.40;;;1.50;;
64915;SDS011;51427;-27.442;153.014;2022-11-15T13:18:27;5.10;;;1.83;;
64915;SDS011;51427;-27.442;153.014;2022-11-15T13:20:54;1.67;;;1.50;;
64915;SDS011;51427;-27.442;153.014;2022-11-15T13:23:22;4.78;;;1.60;;
64915;SDS011;51427;-27.442;153.014;2022-11-15T13:33:50;3.97;;;1.58;;
64915;SDS011;51427;-27.442;153.014;2022-11-15T13:36:23;1.83;;;1.50;;
64915;SDS011;51427;-27.442;153.014;2022-11-15T13:39:03;3.92;;;1.45;;
64915;SDS011;51427;-27.442;153.014;2022-11-15T13:41:33;3.58;;;1.67;;
64915;SDS011;51427;-27.442;153.014;2022-11-15T13:44:03;4.38;;;1.75;;
64915;SDS011;51427;-27.442;153.014;2022-11-15T13:46:44;4.65;;;1.80;;
64915;SDS011;51427;-27.442;153.014;2022-11-15T13:49:12;3.28;;;1.58;;
64915;SDS011;51427;-27.442;153.014;2022-11-15T13:59:28;2.85;;;1.77;;
64915;SDS011;51427;-27.442;153.014;2022-11-15T14:02:11;3.25;;;1.55;;
64915;SDS011;51427;-27.442;153.014;2022-11-15T14:04:50;2.88;;;1.75;;
64915;SDS011;51427;-27.442;153.014;2022-11-15T14:07:27;2.22;;;1.40;;
64915;SDS011;51427;-27.442;153.014;2022-11-15T14:09:56;3.15;;;1.80;;
64915;SDS011;51427;-27.442;153.014;2022-11-15T14:12:31;5.68;;;1.88;;
64915;SDS011;51427;-27.442;153.014;2022-11-15T14:15:45;5.03;;;1.73;;
64915;SDS011;51427;-27.442;153.014;2022-11-15T14:18:04;4.60;;;1.48;;
64915;SDS011;51427;-27.442;153.014;2022-11-15T14:20:33;4.00;;;1.58;;
64915;SDS011;51427;-27.442;153.014;2022-11-15T14:23:04;7.57;;;1.80;;
64915;SDS011;51427;-27.442;153.014;2022-11-15T14:25:33;2.58;;;1.58;;
64915;SDS011;51427;-27.442;153.014;2022-11-15T14:28:15;5.88;;;2.38;;
64915;SDS011;51427;-27.442;153.014;2022-11-15T14:30:44;4.22;;;1.58;;
64915;SDS011;51427;-27.442;153.014;2022-11-15T14:33:20;2.03;;;1.35;;
64915;SDS011;51427;-27.442;153.014;2022-11-15T14:35:51;2.90;;;1.70;;
64915;SDS011;51427;-27.442;153.014;2022-11-15T14:38:20;4.30;;;1.73;;
64915;SDS011;51427;-27.442;153.014;2022-11-15T14:40:48;2.22;;;1.50;;
64915;SDS011;51427;-27.442;153.014;2022-11-15T14:43:16;3.28;;;1.80;;
64915;SDS011;51427;-27.442;153.014;2022-11-15T14:45:43;2.97;;;1.40;;
64915;SDS011;51427;-27.442;153.014;2022-11-15T14:48:11;6.50;;;2.05;;
64915;SDS011;51427;-27.442;153.014;2022-11-15T14:50:39;2.92;;;1.55;;
64915;SDS011;51427;-27.442;153.014;2022-11-15T14:53:06;3.83;;;1.88;;
64915;SDS011;51427;-27.442;153.014;2022-11-15T14:55:39;3.67;;;1.38;;
64915;SDS011;51427;-27.442;153.014;2022-11-15T14:58:07;3.45;;;1.65;;
64915;SDS011;51427;-27.442;153.014;2022-11-15T15:00:38;3.55;;;1.50;;
64915;SDS011;51427;-27.442;153.014;2022-11-15T15:03:07;3.47;;;1.70;;
64915;SDS011;51427;-27.442;153.014;2022-11-15T15:05:36;6.18;;;1.70;;
64915;SDS011;51427;-27.442;153.014;2022-11-15T15:08:07;3.13;;;1.48;;
64915;SDS011;51427;-27.442;153.014;2022-11-15T15:10:37;5.95;;;1.50;;
64915;SDS011;51427;-27.442;153.014;2022-11-15T15:13:17;4.10;;;1.50;;
64915;SDS011;51427;-27.442;153.014;2022-11-15T15:15:47;2.83;;;1.45;;
64915;SDS011;51427;-27.442;153.014;2022-11-15T15:18:15;2.05;;;1.38;;
64915;SDS011;51427;-27.442;153.014;2022-11-15T15:20:44;1.75;;;1.30;;
64915;SDS011;51427;-27.442;153.014;2022-11-15T15:23:16;2.17;;;1.65;;
64915;SDS011;51427;-27.442;153.014;2022-11-15T15:25:46;3.40;;;1.38;;
64915;SDS011;51427;-27.442;153.014;2022-11-15T15:28:14;2.40;;;1.52;;
64915;SDS011;51427;-27.442;153.014;2022-11-15T15:30:42;4.07;;;1.63;;
64915;SDS011;51427;-27.442;153.014;2022-11-15T15:33:10;2.50;;;1.25;;
64915;SDS011;51427;-27.442;153.014;2022-11-15T15:35:37;3.08;;;1.70;;
64915;SDS011;51427;-27.442;153.014;2022-11-15T15:38:05;2.78;;;1.55;;
64915;SDS011;51427;-27.442;153.014;2022-11-15T15:40:34;2.45;;;1.77;;
64915;SDS011;51427;-27.442;153.014;2022-11-15T15:43:02;2.47;;;1.33;;
64915;SDS011;51427;-27.442;153.014;2022-11-15T15:45:30;2.90;;;1.55;;
64915;SDS011;51427;-27.442;153.014;2022-11-15T15:47:58;3.25;;;1.50;;
64915;SDS011;51427;-27.442;153.014;2022-11-15T15:50:27;2.92;;;1.80;;
64915;SDS011;51427;-27.442;153.014;2022-11-15T15:52:58;2.30;;;1.52;;
64915;SDS011;51427;-27.442;153.014;2022-11-15T15:55:26;2.30;;;1.40;;
64915;SDS011;51427;-27.442;153.014;2022-11-15T15:57:55;3.25;;;1.60;;
64915;SDS011;51427;-27.442;153.014;2022-11-15T16:00:24;1.20;;;1.10;;
64915;SDS011;51427;-27.442;153.014;2022-11-15T16:02:52;1.73;;;1.20;;
64915;SDS011;51427;-27.442;153.014;2022-11-15T16:05:21;1.90;;;1.27;;
64915;SDS011;51427;-27.442;153.014;2022-11-15T16:07:49;1.90;;;1.17;;
64915;SDS011;51427;-27.442;153.014;2022-11-15T16:12:47;3.28;;;2.10;;
64915;SDS011;51427;-27.442;153.014;2022-11-15T16:15:15;2.40;;;1.40;;
64915;SDS011;51427;-27.442;153.014;2022-11-15T16:17:54;4.03;;;1.20;;
64915;SDS011;51427;-27.442;153.014;2022-11-15T16:23:05;3.78;;;1.38;;
64915;SDS011;51427;-27.442;153.014;2022-11-15T16:25:36;1.35;;;1.02;;
64915;SDS011;51427;-27.442;153.014;2022-11-15T16:28:18;1.88;;;1.20;;
64915;SDS011;51427;-27.442;153.014;2022-11-15T16:30:47;5.47;;;1.20;;
64915;SDS011;51427;-27.442;153.014;2022-11-15T16:33:16;1.88;;;1.45;;
64915;SDS011;51427;-27.442;153.014;2022-11-15T16:35:45;2.90;;;1.40;;
64915;SDS011;51427;-27.442;153.014;2022-11-15T16:38:14;3.00;;;1.25;;
64915;SDS011;51427;-27.442;153.014;2022-11-15T16:40:42;1.63;;;1.08;;
64915;SDS011;51427;-27.442;153.014;2022-11-15T16:43:10;2.20;;;1.48;;
64915;SDS011;51427;-27.442;153.014;2022-11-15T16:45:38;4.75;;;1.30;;
64915;SDS011;51427;-27.442;153.014;2022-11-15T16:48:06;3.35;;;1.35;;
64915;SDS011;51427;-27.442;153.014;2022-11-15T16:50:43;1.25;;;0.93;;
64915;SDS011;51427;-27.442;153.014;2022-11-15T16:53:11;2.47;;;1.23;;
64915;SDS011;51427;-27.442;153.014;2022-11-15T16:55:39;1.33;;;1.17;;
64915;SDS011;51427;-27.442;153.014;2022-11-15T16:58:07;1.85;;;1.23;;
64915;SDS011;51427;-27.442;153.014;2022-11-15T17:00:35;2.17;;;1.35;;
64915;SDS011;51427;-27.442;153.014;2022-11-15T17:03:03;2.47;;;1.23;;
64915;SDS011;51427;-27.442;153.014;2022-11-15T17:05:30;1.92;;;1.25;;
64915;SDS011;51427;-27.442;153.014;2022-11-15T17:07:58;2.15;;;1.35;;
64915;SDS011;51427;-27.442;153.014;2022-11-15T17:10:26;1.52;;;1.27;;